sensor_id;sensor_type;location;lat;lon;timestamp;temperature;humidity
12870;DHT22;6503;48.572;13.460;2022-11-15T00:02:30;5.30;99.90
12870;DHT22;6503;48.572;13.460;2022-11-15T00:04:58;5.30;99.90
12870;DHT22;6503;48.572;13.460;2022-11-15T00:07:31;5.30;99.90
12870;DHT22;6503;48.572;13.460;2022-11-15T00:10:01;5.30;99.90
12870;DHT22;6503;48.572;13.460;2022-11-15T00:12:29;5.20;99.90
12870;DHT22;6503;48.572;13.460;2022-11-15T00:14:58;5.20;99.90
12870;DHT22;6503;48.572;13.460;2022-11-15T00:17:42;5.30;99.90
12870;DHT22;6503;48.572;13.460;2022-11-15T00:20:14;5.20;99.90
12870;DHT22;6503;48.572;13.460;2022-11-15T00:23:05;5.20;99.90
12870;DHT22;6503;48.572;13.460;2022-11-15T00:25:37;5.20;99.90
12870;DHT22;6503;48.572;13.460;2022-11-15T00:28:13;5.30;99.90
12870;DHT22;6503;48.572;13.460;2022-11-15T00:30:43;5.20;99.90
12870;DHT22;6503;48.572;13.460;2022-11-15T00:33:13;5.20;99.90
12870;DHT22;6503;48.572;13.460;2022-11-15T00:35:49;5.10;99.90
12870;DHT22;6503;48.572;13.460;2022-11-15T00:38:21;5.00;99.90
12870;DHT22;6503;48.572;13.460;2022-11-15T00:40:55;5.00;99.90
12870;DHT22;6503;48.572;13.460;2022-11-15T00:46:23;5.00;99.90
12870;DHT22;6503;48.572;13.460;2022-11-15T00:48:50;5.00;99.90
12870;DHT22;6503;48.572;13.460;2022-11-15T00:51:19;4.90;99.90
12870;DHT22;6503;48.572;13.460;2022-11-15T00:54:02;4.90;99.90
12870;DHT22;6503;48.572;13.460;2022-11-15T00:56:31;4.90;99.90
12870;DHT22;6503;48.572;13.460;2022-11-15T00:59:04;5.00;99.90
12870;DHT22;6503;48.572;13.460;2022-11-15T01:01:34;5.00;99.90
12870;DHT22;6503;48.572;13.460;2022-11-15T01:04:16;5.00;99.90
12870;DHT22;6503;48.572;13.460;2022-11-15T01:06:54;5.00;99.90
12870;DHT22;6503;48.572;13.460;2022-11-15T01:09:34;4.90;99.90
12870;DHT22;6503;48.572;13.460;2022-11-15T01:12:05;4.90;99.90
12870;DHT22;6503;48.572;13.460;2022-11-15T01:14:33;4.90;99.90
12870;DHT22;6503;48.572;13.460;2022-11-15T01:17:01;4.90;99.90
12870;DHT22;6503;48.572;13.460;2022-11-15T01:19:30;4.90;99.90
12870;DHT22;6503;48.572;13.460;2022-11-15T01:22:00;4.90;99.90
12870;DHT22;6503;48.572;13.460;2022-11-15T01:24:32;4.80;99.90
12870;DHT22;6503;48.572;13.460;2022-11-15T01:27:04;4.80;99.90
12870;DHT22;6503;48.572;13.460;2022-11-15T01:29:42;4.80;99.90
12870;DHT22;6503;48.572;13.460;2022-11-15T01:32:08;4.80;99.90
12870;DHT22;6503;48.572;13.460;2022-11-15T01:34:37;4.70;99.90
12870;DHT22;6503;48.572;13.460;2022-11-15T01:37:04;4.70;99.90
12870;DHT22;6503;48.572;13.460;2022-11-15T01:39:32;4.70;99.90
12870;DHT22;6503;48.572;13.460;2022-11-15T01:41:59;4.60;99.90
12870;DHT22;6503;48.572;13.460;2022-11-15T01:44:38;4.50;99.90
12870;DHT22;6503;48.572;13.460;2022-11-15T01:47:09;4.40;99.90
12870;DHT22;6503;48.572;13.460;2022-11-15T01:49:47;4.50;99.90
12870;DHT22;6503;48.572;13.460;2022-11-15T01:52:19;4.40;99.90
12870;DHT22;6503;48.572;13.460;2022-11-15T01:54:50;4.40;99.90
12870;DHT22;6503;48.572;13.460;2022-11-15T01:57:19;4.40;99.90
12870;DHT22;6503;48.572;13.460;2022-11-15T01:59:47;4.40;99.90
12870;DHT22;6503;48.572;13.460;2022-11-15T02:02:14;4.50;99.90
12870;DHT22;6503;48.572;13.460;2022-11-15T02:04:42;4.60;99.90
12870;DHT22;6503;48.572;13.460;2022-11-15T02:07:11;4.40;99.90
12870;DHT22;6503;48.572;13.460;2022-11-15T02:09:42;4.40;99.90
12870;DHT22;6503;48.572;13.460;2022-11-15T02:12:13;4.40;99.90
12870;DHT22;6503;48.572;13.460;2022-11-15T02:14:42;4.40;99.90
12870;DHT22;6503;48.572;13.460;2022-11-15T02:17:26;4.50;99.90
12870;DHT22;6503;48.572;13.460;2022-11-15T02:26:05;4.40;99.90
12870;DHT22;6503;48.572;13.460;2022-11-15T02:28:46;4.40;99.90
12870;DHT22;6503;48.572;13.460;2022-11-15T02:31:21;4.30;99.90
12870;DHT22;6503;48.572;13.460;2022-11-15T02:33:58;4.30;99.90
12870;DHT22;6503;48.572;13.460;2022-11-15T02:36:37;4.30;99.90
12870;DHT22;6503;48.572;13.460;2022-11-15T02:39:15;4.20;99.90
12870;DHT22;6503;48.572;13.460;2022-11-15T02:41:49;4.20;99.90
12870;DHT22;6503;48.572;13.460;2022-11-15T02:44:23;4.10;99.90
12870;DHT22;6503;48.572;13.460;2022-11-15T02:46:53;4.10;99.90
12870;DHT22;6503;48.572;13.460;2022-11-15T02:49:41;4.10;99.90
12870;DHT22;6503;48.572;13.460;2022-11-15T02:52:14;4.00;99.90
12870;DHT22;6503;48.572;13.460;2022-11-15T02:54:41;4.10;99.90
12870;DHT22;6503;48.572;13.460;2022-11-15T02:57:14;4.10;99.90
12870;DHT22;6503;48.572;13.460;2022-11-15T03:00:03;4.20;99.90
12870;DHT22;6503;48.572;13.460;2022-11-15T03:02:51;4.10;99.90
12870;DHT22;6503;48.572;13.460;2022-11-15T03:05:25;4.00;99.90
12870;DHT22;6503;48.572;13.460;2022-11-15T03:08:02;4.00;99.90
12870;DHT22;6503;48.572;13.460;2022-11-15T03:10:42;4.10;99.90
12870;DHT22;6503;48.572;13.460;2022-11-15T03:13:19;4.20;99.90
12870;DHT22;6503;48.572;13.460;2022-11-15T03:15:54;4.10;99.90
12870;DHT22;6503;48.572;13.460;2022-11-15T03:18:29;4.20;99.90
12870;DHT22;6503;48.572;13.460;2022-11-15T03:21:00;4.10;99.90
12870;DHT22;6503;48.572;13.460;2022-11-15T03:23:31;4.00;99.90
12870;DHT22;6503;48.572;13.460;2022-11-15T03:26:00;4.00;99.90
12870;DHT22;6503;48.572;13.460;2022-11-15T03:28:32;4.00;99.90
12870;DHT22;6503;48.572;13.460;2022-11-15T03:31:01;4.00;99.90
12870;DHT22;6503;48.572;13.460;2022-11-15T03:33:51;4.00;99.90
12870;DHT22;6503;48.572;13.460;2022-11-15T03:36:21;3.90;99.90
12870;DHT22;6503;48.572;13.460;2022-11-15T03:38:48;3.90;99.90
12870;DHT22;6503;48.572;13.460;2022-11-15T03:41:23;3.90;99.90
12870;DHT22;6503;48.572;13.460;2022-11-15T03:43:55;3.90;99.90
12870;DHT22;6503;48.572;13.460;2022-11-15T03:46:27;3.90;99.90
12870;DHT22;6503;48.572;13.460;2022-11-15T03:49:03;3.90;99.90
12870;DHT22;6503;48.572;13.460;2022-11-15T03:51:31;4.00;99.90
12870;DHT22;6503;48.572;13.460;2022-11-15T03:53:59;3.90;99.90
12870;DHT22;6503;48.572;13.460;2022-11-15T03:56:31;3.80;99.90
12870;DHT22;6503;48.572;13.460;2022-11-15T03:59:00;3.70;99.90
12870;DHT22;6503;48.572;13.460;2022-11-15T04:01:27;3.60;99.90
12870;DHT22;6503;48.572;13.460;2022-11-15T04:03:54;3.70;99.90
12870;DHT22;6503;48.572;13.460;2022-11-15T04:06:35;3.80;99.90
12870;DHT22;6503;48.572;13.460;2022-11-15T04:09:11;3.80;99.90
12870;DHT22;6503;48.572;13.460;2022-11-15T04:11:40;3.70;99.90
12870;DHT22;6503;48.572;13.460;2022-11-15T04:14:10;3.80;99.90
12870;DHT22;6503;48.572;13.460;2022-11-15T04:16:56;3.80;99.90
12870;DHT22;6503;48.572;13.460;2022-11-15T04:19:39;3.80;99.90
12870;DHT22;6503;48.572;13.460;2022-11-15T04:26:01;3.70;99.90
12870;DHT22;6503;48.572;13.460;2022-11-15T04:28:50;3.70;99.90
12870;DHT22;6503;48.572;13.460;2022-11-15T04:31:56;3.60;99.90
12870;DHT22;6503;48.572;13.460;2022-11-15T04:34:58;3.70;99.90
12870;DHT22;6503;48.572;13.460;2022-11-15T04:37:39;3.70;99.90
12870;DHT22;6503;48.572;13.460;2022-11-15T04:40:22;3.60;99.90
12870;DHT22;6503;48.572;13.460;2022-11-15T04:43:08;3.60;99.90
12870;DHT22;6503;48.572;13.460;2022-11-15T04:45:49;3.70;99.90
12870;DHT22;6503;48.572;13.460;2022-11-15T04:48:18;3.80;99.90
12870;DHT22;6503;48.572;13.460;2022-11-15T04:50:55;3.80;99.90
12870;DHT22;6503;48.572;13.460;2022-11-15T04:53:25;3.90;99.90
12870;DHT22;6503;48.572;13.460;2022-11-15T04:55:53;3.90;99.90
12870;DHT22;6503;48.572;13.460;2022-11-15T05:01:23;3.80;99.90
12870;DHT22;6503;48.572;13.460;2022-11-15T05:03:52;3.80;99.90
12870;DHT22;6503;48.572;13.460;2022-11-15T05:06:36;3.70;99.90
12870;DHT22;6503;48.572;13.460;2022-11-15T05:09:05;3.70;99.90
12870;DHT22;6503;48.572;13.460;2022-11-15T05:11:37;3.60;99.90
12870;DHT22;6503;48.572;13.460;2022-11-15T05:14:10;3.40;99.90
12870;DHT22;6503;48.572;13.460;2022-11-15T05:16:47;3.20;99.90
12870;DHT22;6503;48.572;13.460;2022-11-15T05:22:49;3.20;99.90
12870;DHT22;6503;48.572;13.460;2022-11-15T05:28:35;3.50;99.90
12870;DHT22;6503;48.572;13.460;2022-11-15T05:32:06;3.50;99.90
12870;DHT22;6503;48.572;13.460;2022-11-15T05:34:49;3.50;99.90
12870;DHT22;6503;48.572;13.460;2022-11-15T05:37:17;3.50;99.90
12870;DHT22;6503;48.572;13.460;2022-11-15T05:39:58;3.50;99.90
12870;DHT22;6503;48.572;13.460;2022-11-15T05:42:35;3.50;99.90
12870;DHT22;6503;48.572;13.460;2022-11-15T05:45:08;3.40;99.90
12870;DHT22;6503;48.572;13.460;2022-11-15T05:47:40;3.50;99.90
12870;DHT22;6503;48.572;13.460;2022-11-15T05:53:59;3.30;99.90
12870;DHT22;6503;48.572;13.460;2022-11-15T06:21:05;3.50;99.90
12870;DHT22;6503;48.572;13.460;2022-11-15T07:39:06;4.30;99.90
12870;DHT22;6503;48.572;13.460;2022-11-15T07:55:03;4.60;99.90
12870;DHT22;6503;48.572;13.460;2022-11-15T07:57:38;4.60;99.90
12870;DHT22;6503;48.572;13.460;2022-11-15T08:33:47;5.10;99.90
12870;DHT22;6503;48.572;13.460;2022-11-15T08:36:20;5.20;99.90
12870;DHT22;6503;48.572;13.460;2022-11-15T08:39:46;5.30;99.90
12870;DHT22;6503;48.572;13.460;2022-11-15T08:49:47;4.90;99.90
12870;DHT22;6503;48.572;13.460;2022-11-15T08:52:41;4.90;99.90
12870;DHT22;6503;48.572;13.460;2022-11-15T08:55:49;5.10;99.90
12870;DHT22;6503;48.572;13.460;2022-11-15T09:12:28;5.60;99.90
12870;DHT22;6503;48.572;13.460;2022-11-15T09:15:14;5.70;99.90
12870;DHT22;6503;48.572;13.460;2022-11-15T09:18:33;5.70;99.90
12870;DHT22;6503;48.572;13.460;2022-11-15T09:21:12;5.70;99.90
12870;DHT22;6503;48.572;13.460;2022-11-15T09:24:00;5.70;99.90
12870;DHT22;6503;48.572;13.460;2022-11-15T09:26:31;5.90;99.90
12870;DHT22;6503;48.572;13.460;2022-11-15T09:29:07;6.00;99.90
12870;DHT22;6503;48.572;13.460;2022-11-15T09:31:43;6.20;99.90
12870;DHT22;6503;48.572;13.460;2022-11-15T09:34:53;6.30;99.90
12870;DHT22;6503;48.572;13.460;2022-11-15T09:38:14;6.40;99.90
12870;DHT22;6503;48.572;13.460;2022-11-15T09:40:44;6.60;99.90
12870;DHT22;6503;48.572;13.460;2022-11-15T09:43:27;6.70;99.90
12870;DHT22;6503;48.572;13.460;2022-11-15T09:46:15;6.90;99.90
12870;DHT22;6503;48.572;13.460;2022-11-15T09:48:53;7.00;99.90
12870;DHT22;6503;48.572;13.460;2022-11-15T09:51:37;7.20;99.90
12870;DHT22;6503;48.572;13.460;2022-11-15T09:54:43;7.30;99.90
12870;DHT22;6503;48.572;13.460;2022-11-15T09:57:50;7.50;99.90
12870;DHT22;6503;48.572;13.460;2022-11-15T10:00:33;7.70;99.90
12870;DHT22;6503;48.572;13.460;2022-11-15T10:24:01;9.00;99.90
12870;DHT22;6503;48.572;13.460;2022-11-15T10:26:28;9.30;99.90
12870;DHT22;6503;48.572;13.460;2022-11-15T10:32:35;9.80;99.90
12870;DHT22;6503;48.572;13.460;2022-11-15T10:35:18;9.90;99.90
12870;DHT22;6503;48.572;13.460;2022-11-15T10:51:32;10.50;99.90
12870;DHT22;6503;48.572;13.460;2022-11-15T10:54:10;10.70;99.90
12870;DHT22;6503;48.572;13.460;2022-11-15T10:56:39;10.90;99.90
12870;DHT22;6503;48.572;13.460;2022-11-15T10:59:17;11.00;99.90
12870;DHT22;6503;48.572;13.460;2022-11-15T11:01:50;11.20;99.90
12870;DHT22;6503;48.572;13.460;2022-11-15T11:04:55;11.20;99.90
12870;DHT22;6503;48.572;13.460;2022-11-15T11:28:30;12.30;99.90
12870;DHT22;6503;48.572;13.460;2022-11-15T11:31:23;12.30;99.90
12870;DHT22;6503;48.572;13.460;2022-11-15T11:34:26;12.60;99.90
12870;DHT22;6503;48.572;13.460;2022-11-15T11:37:09;12.70;99.90
12870;DHT22;6503;48.572;13.460;2022-11-15T11:40:01;12.80;99.90
12870;DHT22;6503;48.572;13.460;2022-11-15T11:42:45;12.90;99.90
12870;DHT22;6503;48.572;13.460;2022-11-15T11:45:36;13.00;99.90
12870;DHT22;6503;48.572;13.460;2022-11-15T11:48:27;13.20;99.90
12870;DHT22;6503;48.572;13.460;2022-11-15T11:54:34;13.50;99.90
12870;DHT22;6503;48.572;13.460;2022-11-15T11:57:28;13.70;99.90
12870;DHT22;6503;48.572;13.460;2022-11-15T12:00:57;13.90;99.90
12870;DHT22;6503;48.572;13.460;2022-11-15T12:03:38;13.90;99.90
12870;DHT22;6503;48.572;13.460;2022-11-15T12:07:05;14.10;99.90
12870;DHT22;6503;48.572;13.460;2022-11-15T12:10:12;14.20;99.90
12870;DHT22;6503;48.572;13.460;2022-11-15T12:13:19;14.30;99.90
12870;DHT22;6503;48.572;13.460;2022-11-15T12:26:48;14.50;99.90
12870;DHT22;6503;48.572;13.460;2022-11-15T12:29:20;14.90;99.90
12870;DHT22;6503;48.572;13.460;2022-11-15T12:31:52;14.90;99.90
12870;DHT22;6503;48.572;13.460;2022-11-15T12:34:38;14.90;99.90
12870;DHT22;6503;48.572;13.460;2022-11-15T12:40:37;14.90;99.90
12870;DHT22;6503;48.572;13.460;2022-11-15T12:43:39;14.90;99.90
12870;DHT22;6503;48.572;13.460;2022-11-15T12:46:10;15.00;99.90
12870;DHT22;6503;48.572;13.460;2022-11-15T12:48:56;15.00;99.90
12870;DHT22;6503;48.572;13.460;2022-11-15T12:54:51;15.10;99.90
12870;DHT22;6503;48.572;13.460;2022-11-15T12:57:36;15.20;99.90
12870;DHT22;6503;48.572;13.460;2022-11-15T13:03:27;15.30;99.90
12870;DHT22;6503;48.572;13.460;2022-11-15T13:06:39;15.40;99.90
12870;DHT22;6503;48.572;13.460;2022-11-15T13:12:08;15.50;99.90
12870;DHT22;6503;48.572;13.460;2022-11-15T13:14:45;15.50;99.90
12870;DHT22;6503;48.572;13.460;2022-11-15T13:17:35;15.50;99.90
12870;DHT22;6503;48.572;13.460;2022-11-15T13:20:22;15.50;99.90
12870;DHT22;6503;48.572;13.460;2022-11-15T13:23:00;15.40;99.90
12870;DHT22;6503;48.572;13.460;2022-11-15T13:25:52;15.20;99.90
12870;DHT22;6503;48.572;13.460;2022-11-15T13:28:29;15.00;99.90
12870;DHT22;6503;48.572;13.460;2022-11-15T13:31:00;14.50;99.90
12870;DHT22;6503;48.572;13.460;2022-11-15T13:33:31;14.20;99.90
12870;DHT22;6503;48.572;13.460;2022-11-15T13:36:01;13.80;99.90
12870;DHT22;6503;48.572;13.460;2022-11-15T13:38:30;13.50;99.90
12870;DHT22;6503;48.572;13.460;2022-11-15T13:40:59;13.30;99.90
12870;DHT22;6503;48.572;13.460;2022-11-15T13:43:29;13.20;99.90
12870;DHT22;6503;48.572;13.460;2022-11-15T13:46:12;13.10;99.90
12870;DHT22;6503;48.572;13.460;2022-11-15T13:48:43;13.00;99.90
12870;DHT22;6503;48.572;13.460;2022-11-15T13:51:17;12.90;99.90
12870;DHT22;6503;48.572;13.460;2022-11-15T13:53:47;12.90;99.90
12870;DHT22;6503;48.572;13.460;2022-11-15T13:56:15;12.80;99.90
12870;DHT22;6503;48.572;13.460;2022-11-15T13:58:43;12.60;99.90
12870;DHT22;6503;48.572;13.460;2022-11-15T14:01:17;12.50;99.90
12870;DHT22;6503;48.572;13.460;2022-11-15T14:03:56;12.40;99.90
12870;DHT22;6503;48.572;13.460;2022-11-15T14:06:25;12.30;99.90
12870;DHT22;6503;48.572;13.460;2022-11-15T14:09:14;12.20;99.90
12870;DHT22;6503;48.572;13.460;2022-11-15T14:11:50;12.10;99.90
12870;DHT22;6503;48.572;13.460;2022-11-15T14:14:20;12.00;99.90
12870;DHT22;6503;48.572;13.460;2022-11-15T14:16:50;11.90;99.90
12870;DHT22;6503;48.572;13.460;2022-11-15T14:19:37;11.80;99.90
12870;DHT22;6503;48.572;13.460;2022-11-15T14:22:09;11.70;99.90
12870;DHT22;6503;48.572;13.460;2022-11-15T14:24:38;11.60;99.90
12870;DHT22;6503;48.572;13.460;2022-11-15T14:27:26;11.50;99.90
12870;DHT22;6503;48.572;13.460;2022-11-15T14:29:54;11.40;99.90
12870;DHT22;6503;48.572;13.460;2022-11-15T14:32:22;11.30;99.90
12870;DHT22;6503;48.572;13.460;2022-11-15T14:34:54;11.20;99.90
12870;DHT22;6503;48.572;13.460;2022-11-15T14:37:24;11.10;99.90
12870;DHT22;6503;48.572;13.460;2022-11-15T14:39:53;11.10;99.90
12870;DHT22;6503;48.572;13.460;2022-11-15T14:42:24;10.90;99.90
12870;DHT22;6503;48.572;13.460;2022-11-15T14:44:53;10.90;99.90
12870;DHT22;6503;48.572;13.460;2022-11-15T14:47:22;10.80;99.90
12870;DHT22;6503;48.572;13.460;2022-11-15T14:49:51;10.70;99.90
12870;DHT22;6503;48.572;13.460;2022-11-15T14:52:30;10.60;99.90
12870;DHT22;6503;48.572;13.460;2022-11-15T14:54:59;10.50;99.90
12870;DHT22;6503;48.572;13.460;2022-11-15T14:57:27;10.50;99.90
12870;DHT22;6503;48.572;13.460;2022-11-15T14:59:54;10.40;99.90
12870;DHT22;6503;48.572;13.460;2022-11-15T15:02:25;10.40;99.90
12870;DHT22;6503;48.572;13.460;2022-11-15T15:04:57;10.20;99.90
12870;DHT22;6503;48.572;13.460;2022-11-15T15:07:30;10.10;99.90
12870;DHT22;6503;48.572;13.460;2022-11-15T15:09:58;10.00;99.90
12870;DHT22;6503;48.572;13.460;2022-11-15T15:12:25;10.00;99.90
12870;DHT22;6503;48.572;13.460;2022-11-15T15:14:53;9.80;99.90
12870;DHT22;6503;48.572;13.460;2022-11-15T15:17:20;9.70;99.90
12870;DHT22;6503;48.572;13.460;2022-11-15T15:19:53;9.60;99.90
12870;DHT22;6503;48.572;13.460;2022-11-15T15:22:31;9.50;99.90
12870;DHT22;6503;48.572;13.460;2022-11-15T15:24:58;9.40;99.90
12870;DHT22;6503;48.572;13.460;2022-11-15T15:27:25;9.40;99.90
12870;DHT22;6503;48.572;13.460;2022-11-15T15:29:53;9.40;99.90
12870;DHT22;6503;48.572;13.460;2022-11-15T15:32:23;9.20;99.90
12870;DHT22;6503;48.572;13.460;2022-11-15T15:34:50;9.20;99.90
12870;DHT22;6503;48.572;13.460;2022-11-15T15:37:22;9.10;99.90
12870;DHT22;6503;48.572;13.460;2022-11-15T15:39:51;9.00;99.90
12870;DHT22;6503;48.572;13.460;2022-11-15T15:42:19;8.90;99.90
12870;DHT22;6503;48.572;13.460;2022-11-15T15:44:46;8.80;99.90
12870;DHT22;6503;48.572;13.460;2022-11-15T15:47:15;8.70;99.90
12870;DHT22;6503;48.572;13.460;2022-11-15T15:49:45;8.50;99.90
12870;DHT22;6503;48.572;13.460;2022-11-15T15:52:12;8.40;99.90
12870;DHT22;6503;48.572;13.460;2022-11-15T15:54:41;8.40;99.90
12870;DHT22;6503;48.572;13.460;2022-11-15T15:57:10;8.30;99.90
12870;DHT22;6503;48.572;13.460;2022-11-15T15:59:38;8.20;99.90
12870;DHT22;6503;48.572;13.460;2022-11-15T16:02:09;8.00;99.90
12870;DHT22;6503;48.572;13.460;2022-11-15T16:04:38;7.90;99.90
12870;DHT22;6503;48.572;13.460;2022-11-15T16:07:05;7.90;99.90
12870;DHT22;6503;48.572;13.460;2022-11-15T16:09:35;7.90;99.90
12870;DHT22;6503;48.572;13.460;2022-11-15T16:12:21;7.80;99.90
12870;DHT22;6503;48.572;13.460;2022-11-15T16:14:49;7.90;99.90
12870;DHT22;6503;48.572;13.460;2022-11-15T16:17:18;7.90;99.90
12870;DHT22;6503;48.572;13.460;2022-11-15T16:19:47;7.80;99.90
12870;DHT22;6503;48.572;13.460;2022-11-15T16:22:14;7.80;99.90
12870;DHT22;6503;48.572;13.460;2022-11-15T16:24:41;7.70;99.90
12870;DHT22;6503;48.572;13.460;2022-11-15T16:27:12;7.60;99.90
12870;DHT22;6503;48.572;13.460;2022-11-15T16:29:41;7.50;99.90
12870;DHT22;6503;48.572;13.460;2022-11-15T16:32:08;7.40;99.90
12870;DHT22;6503;48.572;13.460;2022-11-15T16:34:36;7.30;99.90
12870;DHT22;6503;48.572;13.460;2022-11-15T16:37:03;7.30;99.90
12870;DHT22;6503;48.572;13.460;2022-11-15T16:39:30;7.40;99.90
12870;DHT22;6503;48.572;13.460;2022-11-15T16:41:57;7.30;99.90
12870;DHT22;6503;48.572;13.460;2022-11-15T16:44:25;7.30;99.90
12870;DHT22;6503;48.572;13.460;2022-11-15T16:46:53;7.20;99.90
12870;DHT22;6503;48.572;13.460;2022-11-15T16:49:22;7.20;99.90
12870;DHT22;6503;48.572;13.460;2022-11-15T16:51:51;7.10;99.90
12870;DHT22;6503;48.572;13.460;2022-11-15T16:54:19;7.10;99.90
12870;DHT22;6503;48.572;13.460;2022-11-15T16:56:46;7.10;99.90
12870;DHT22;6503;48.572;13.460;2022-11-15T16:59:16;7.10;99.90
12870;DHT22;6503;48.572;13.460;2022-11-15T17:01:44;7.10;99.90
12870;DHT22;6503;48.572;13.460;2022-11-15T17:04:19;7.10;99.90
12870;DHT22;6503;48.572;13.460;2022-11-15T17:06:47;7.10;99.90
12870;DHT22;6503;48.572;13.460;2022-11-15T17:09:16;7.10;99.90
12870;DHT22;6503;48.572;13.460;2022-11-15T17:11:43;7.00;99.90
12870;DHT22;6503;48.572;13.460;2022-11-15T17:14:12;7.00;99.90
12870;DHT22;6503;48.572;13.460;2022-11-15T17:16:39;6.80;99.90
12870;DHT22;6503;48.572;13.460;2022-11-15T17:19:12;6.60;99.90
12870;DHT22;6503;48.572;13.460;2022-11-15T17:21:44;6.70;99.90
12870;DHT22;6503;48.572;13.460;2022-11-15T17:24:11;6.70;99.90
12870;DHT22;6503;48.572;13.460;2022-11-15T17:26:39;6.80;99.90
12870;DHT22;6503;48.572;13.460;2022-11-15T17:29:09;6.80;99.90
12870;DHT22;6503;48.572;13.460;2022-11-15T17:31:37;6.70;99.90
12870;DHT22;6503;48.572;13.460;2022-11-15T17:34:04;6.70;99.90
12870;DHT22;6503;48.572;13.460;2022-11-15T17:36:32;6.70;99.90
12870;DHT22;6503;48.572;13.460;2022-11-15T17:39:00;6.60;99.90
12870;DHT22;6503;48.572;13.460;2022-11-15T17:41:27;6.60;99.90
12870;DHT22;6503;48.572;13.460;2022-11-15T17:43:55;6.60;99.90
12870;DHT22;6503;48.572;13.460;2022-11-15T17:46:25;6.50;99.90
12870;DHT22;6503;48.572;13.460;2022-11-15T17:48:54;6.50;99.90
12870;DHT22;6503;48.572;13.460;2022-11-15T17:51:21;6.50;99.90
12870;DHT22;6503;48.572;13.460;2022-11-15T17:53:49;6.40;99.90
12870;DHT22;6503;48.572;13.460;2022-11-15T17:56:19;6.40;99.90
12870;DHT22;6503;48.572;13.460;2022-11-15T17:58:50;6.40;99.90
12870;DHT22;6503;48.572;13.460;2022-11-15T18:01:18;6.40;99.90
12870;DHT22;6503;48.572;13.460;2022-11-15T18:03:46;6.50;99.90
12870;DHT22;6503;48.572;13.460;2022-11-15T18:06:13;6.60;99.90
12870;DHT22;6503;48.572;13.460;2022-11-15T18:08:41;6.60;99.90
12870;DHT22;6503;48.572;13.460;2022-11-15T18:11:11;6.60;99.90
12870;DHT22;6503;48.572;13.460;2022-11-15T18:13:41;6.60;99.90
12870;DHT22;6503;48.572;13.460;2022-11-15T18:16:11;6.60;99.90
12870;DHT22;6503;48.572;13.460;2022-11-15T18:18:39;6.60;99.90
12870;DHT22;6503;48.572;13.460;2022-11-15T18:21:08;6.60;99.90
12870;DHT22;6503;48.572;13.460;2022-11-15T18:23:35;6.70;99.90
12870;DHT22;6503;48.572;13.460;2022-11-15T18:26:04;6.70;99.90
12870;DHT22;6503;48.572;13.460;2022-11-15T18:28:33;6.70;99.90
12870;DHT22;6503;48.572;13.460;2022-11-15T18:31:03;6.70;99.90
12870;DHT22;6503;48.572;13.460;2022-11-15T18:33:32;6.60;99.90
12870;DHT22;6503;48.572;13.460;2022-11-15T18:36:00;6.60;99.90
12870;DHT22;6503;48.572;13.460;2022-11-15T18:38:28;6.60;99.90
12870;DHT22;6503;48.572;13.460;2022-11-15T18:40:57;6.60;99.90
12870;DHT22;6503;48.572;13.460;2022-11-15T18:43:25;6.70;99.90
12870;DHT22;6503;48.572;13.460;2022-11-15T18:45:52;6.70;99.90
12870;DHT22;6503;48.572;13.460;2022-11-15T18:48:20;6.70;99.90
12870;DHT22;6503;48.572;13.460;2022-11-15T18:50:48;6.70;99.90
12870;DHT22;6503;48.572;13.460;2022-11-15T18:53:15;6.80;99.90
12870;DHT22;6503;48.572;13.460;2022-11-15T18:55:42;6.80;99.90
12870;DHT22;6503;48.572;13.460;2022-11-15T18:58:08;6.80;99.90
12870;DHT22;6503;48.572;13.460;2022-11-15T19:00:35;6.80;99.90
12870;DHT22;6503;48.572;13.460;2022-11-15T19:03:02;6.80;99.90
12870;DHT22;6503;48.572;13.460;2022-11-15T19:05:30;6.80;99.90
12870;DHT22;6503;48.572;13.460;2022-11-15T19:07:57;6.80;99.90
12870;DHT22;6503;48.572;13.460;2022-11-15T19:10:24;6.70;99.90
12870;DHT22;6503;48.572;13.460;2022-11-15T19:12:54;6.70;99.90
12870;DHT22;6503;48.572;13.460;2022-11-15T19:15:21;6.60;99.90
12870;DHT22;6503;48.572;13.460;2022-11-15T19:17:47;6.50;99.90
12870;DHT22;6503;48.572;13.460;2022-11-15T19:20:14;6.60;99.90
12870;DHT22;6503;48.572;13.460;2022-11-15T19:22:44;6.50;99.90
12870;DHT22;6503;48.572;13.460;2022-11-15T19:25:11;6.50;99.90
12870;DHT22;6503;48.572;13.460;2022-11-15T19:27:38;6.50;99.90
12870;DHT22;6503;48.572;13.460;2022-11-15T19:30:06;6.50;99.90
12870;DHT22;6503;48.572;13.460;2022-11-15T19:32:33;6.40;99.90
12870;DHT22;6503;48.572;13.460;2022-11-15T19:35:00;6.40;99.90
12870;DHT22;6503;48.572;13.460;2022-11-15T19:37:27;6.30;99.90
12870;DHT22;6503;48.572;13.460;2022-11-15T19:39:55;6.30;99.90
12870;DHT22;6503;48.572;13.460;2022-11-15T19:42:22;6.40;99.90
12870;DHT22;6503;48.572;13.460;2022-11-15T19:44:51;6.40;99.90
12870;DHT22;6503;48.572;13.460;2022-11-15T19:47:18;6.50;99.90
12870;DHT22;6503;48.572;13.460;2022-11-15T19:49:45;6.60;99.90
12870;DHT22;6503;48.572;13.460;2022-11-15T19:52:12;6.60;99.90
12870;DHT22;6503;48.572;13.460;2022-11-15T19:54:40;6.50;99.90
12870;DHT22;6503;48.572;13.460;2022-11-15T19:57:08;6.20;99.90
12870;DHT22;6503;48.572;13.460;2022-11-15T19:59:35;6.20;99.90
12870;DHT22;6503;48.572;13.460;2022-11-15T20:02:02;6.20;99.90
12870;DHT22;6503;48.572;13.460;2022-11-15T20:04:29;6.20;99.90
12870;DHT22;6503;48.572;13.460;2022-11-15T20:06:56;6.30;99.90
12870;DHT22;6503;48.572;13.460;2022-11-15T20:09:23;6.30;99.90
12870;DHT22;6503;48.572;13.460;2022-11-15T20:11:52;6.30;99.90
12870;DHT22;6503;48.572;13.460;2022-11-15T20:14:22;6.30;99.90
12870;DHT22;6503;48.572;13.460;2022-11-15T20:16:49;6.40;99.90
12870;DHT22;6503;48.572;13.460;2022-11-15T20:19:17;6.40;99.90
12870;DHT22;6503;48.572;13.460;2022-11-15T20:21:46;6.40;99.90
12870;DHT22;6503;48.572;13.460;2022-11-15T20:24:13;6.40;99.90
12870;DHT22;6503;48.572;13.460;2022-11-15T20:26:40;6.40;99.90
12870;DHT22;6503;48.572;13.460;2022-11-15T20:29:08;6.40;99.90
12870;DHT22;6503;48.572;13.460;2022-11-15T20:31:36;6.50;99.90
12870;DHT22;6503;48.572;13.460;2022-11-15T20:34:03;6.40;99.90
12870;DHT22;6503;48.572;13.460;2022-11-15T20:36:31;6.40;99.90
12870;DHT22;6503;48.572;13.460;2022-11-15T20:38:59;6.40;99.90
12870;DHT22;6503;48.572;13.460;2022-11-15T20:41:26;6.40;99.90
12870;DHT22;6503;48.572;13.460;2022-11-15T20:43:54;6.40;99.90
12870;DHT22;6503;48.572;13.460;2022-11-15T20:46:21;6.40;99.90
12870;DHT22;6503;48.572;13.460;2022-11-15T20:48:49;6.40;99.90
12870;DHT22;6503;48.572;13.460;2022-11-15T20:51:17;6.50;99.90
12870;DHT22;6503;48.572;13.460;2022-11-15T20:53:45;6.40;99.90
12870;DHT22;6503;48.572;13.460;2022-11-15T20:56:14;6.40;99.90
12870;DHT22;6503;48.572;13.460;2022-11-15T20:58:41;6.40;99.90
12870;DHT22;6503;48.572;13.460;2022-11-15T21:01:11;6.40;99.90
12870;DHT22;6503;48.572;13.460;2022-11-15T21:03:38;6.20;99.90
12870;DHT22;6503;48.572;13.460;2022-11-15T21:06:08;6.20;99.90
12870;DHT22;6503;48.572;13.460;2022-11-15T21:08:36;6.10;99.90